createdAt,value
2018-05-18T00:01:41.562Z,993.77
2018-05-18T00:02:41.411Z,993.78
2018-05-18T00:04:34.274Z,993.77
2018-05-18T00:05:34.075Z,993.81
2018-05-18T00:07:26.916Z,993.77
2018-05-18T00:08:26.828Z,993.80
2018-05-18T00:10:19.562Z,993.81
2018-05-18T00:11:19.452Z,993.86
2018-05-18T00:13:12.224Z,993.84
2018-05-18T00:14:12.103Z,993.79
2018-05-18T00:16:04.841Z,993.81
2018-05-18T00:17:04.742Z,993.78
2018-05-18T00:18:57.503Z,993.75
2018-05-18T00:19:57.430Z,993.75
2018-05-18T00:21:50.143Z,993.74
2018-05-18T00:22:50.061Z,993.71
2018-05-18T00:24:42.834Z,993.72
2018-05-18T00:25:42.682Z,993.77
2018-05-18T00:27:35.436Z,993.74
2018-05-18T00:28:35.332Z,993.76
2018-05-18T00:30:29.627Z,993.78
2018-05-18T00:31:29.513Z,993.74
2018-05-18T00:33:22.380Z,993.76
2018-05-18T00:34:22.219Z,993.78
2018-05-18T00:36:14.918Z,993.82
2018-05-18T00:37:14.835Z,993.75
2018-05-18T00:39:07.583Z,993.68
2018-05-18T00:40:07.497Z,993.70
2018-05-18T00:42:00.232Z,993.71
2018-05-18T00:43:00.107Z,993.74
2018-05-18T00:44:52.993Z,993.69
2018-05-18T00:45:52.749Z,993.68
2018-05-18T00:47:45.661Z,993.70
2018-05-18T00:48:45.501Z,993.66
2018-05-18T00:50:40.528Z,993.66
2018-05-18T00:51:39.292Z,993.73
2018-05-18T00:53:32.270Z,993.68
2018-05-18T00:54:32.234Z,993.66
2018-05-18T00:56:24.897Z,993.65
2018-05-18T00:57:24.682Z,993.68
2018-05-18T00:59:17.410Z,993.65
2018-05-18T01:00:17.326Z,993.66
2018-05-18T01:02:10.085Z,993.64
2018-05-18T01:03:09.964Z,993.72
2018-05-18T01:05:02.733Z,993.66
2018-05-18T01:06:02.624Z,993.66
2018-05-18T01:07:55.375Z,993.66
2018-05-18T01:08:55.266Z,993.68
2018-05-18T01:10:48.110Z,993.67
2018-05-18T01:11:48.025Z,993.69
2018-05-18T01:13:40.793Z,993.71
2018-05-18T01:14:40.666Z,993.65
2018-05-18T01:16:33.424Z,993.66
2018-05-18T01:17:33.304Z,993.70
2018-05-18T01:19:26.161Z,993.68
2018-05-18T01:20:26.068Z,993.63
2018-05-18T01:22:18.808Z,993.72
2018-05-18T01:23:18.712Z,993.69
2018-05-18T01:25:11.439Z,993.70
2018-05-18T01:26:11.472Z,993.70
2018-05-18T01:28:04.212Z,993.71
2018-05-18T01:29:04.139Z,993.71
2018-05-18T01:30:56.849Z,993.73
2018-05-18T01:31:56.748Z,993.76
2018-05-18T01:33:49.501Z,993.75
2018-05-18T01:34:49.392Z,993.74
2018-05-18T01:36:42.137Z,993.77
2018-05-18T01:37:42.047Z,993.73
2018-05-18T01:39:34.922Z,993.68
2018-05-18T01:40:34.700Z,993.68
2018-05-18T01:42:27.961Z,993.65
2018-05-18T01:43:27.848Z,993.68
2018-05-18T01:45:20.712Z,993.63
2018-05-18T01:46:20.616Z,993.69
2018-05-18T01:48:13.367Z,993.62
2018-05-18T01:49:13.258Z,993.67
2018-05-18T01:51:05.999Z,993.69
2018-05-18T01:52:05.912Z,993.67
2018-05-18T01:53:58.660Z,993.68
2018-05-18T01:54:58.543Z,993.75
2018-05-18T01:56:51.316Z,993.76
2018-05-18T01:57:51.184Z,993.75
2018-05-18T01:59:44.572Z,993.80
2018-05-18T02:00:43.953Z,993.76
2018-05-18T02:02:36.696Z,993.74
2018-05-18T02:03:36.594Z,993.79
2018-05-18T02:05:29.352Z,993.79
2018-05-18T02:06:29.229Z,993.75
2018-05-18T02:08:22.518Z,993.82
2018-05-18T02:09:22.418Z,993.72
2018-05-18T02:11:15.152Z,993.75
2018-05-18T02:12:15.036Z,993.79
2018-05-18T02:14:07.887Z,993.76
2018-05-18T02:15:07.818Z,993.76
2018-05-18T02:17:01.053Z,993.73
2018-05-18T02:18:00.941Z,993.72
2018-05-18T02:19:53.701Z,993.74
2018-05-18T02:20:53.621Z,993.79
2018-05-18T02:22:46.358Z,993.77
2018-05-18T02:23:46.239Z,993.78
2018-05-18T02:25:38.985Z,993.75
2018-05-18T02:26:38.892Z,993.75
2018-05-18T02:28:31.739Z,993.78
2018-05-18T02:29:31.640Z,993.78
2018-05-18T02:31:24.476Z,993.76
2018-05-18T02:32:24.279Z,993.74
2018-05-18T02:34:17.037Z,993.81
2018-05-18T02:35:16.962Z,993.78
2018-05-18T02:37:09.826Z,993.79
2018-05-18T02:38:09.683Z,993.76
2018-05-18T02:40:02.561Z,993.82
2018-05-18T02:41:02.430Z,993.83
2018-05-18T02:42:55.317Z,993.76
2018-05-18T02:43:55.193Z,993.81
2018-05-18T02:45:48.041Z,993.81
2018-05-18T02:46:47.936Z,993.79
2018-05-18T02:48:40.689Z,993.78
2018-05-18T02:49:40.611Z,993.81
2018-05-18T02:51:33.704Z,993.82
2018-05-18T02:52:33.334Z,993.82
2018-05-18T02:54:26.128Z,993.89
2018-05-18T02:55:26.186Z,993.89
2018-05-18T02:57:18.735Z,993.87
2018-05-18T02:58:18.625Z,993.88
2018-05-18T03:00:11.368Z,994.02
2018-05-18T03:01:11.525Z,993.91
2018-05-18T03:03:04.150Z,993.98
2018-05-18T03:04:03.915Z,993.96
2018-05-18T03:05:56.676Z,993.93
2018-05-18T03:06:56.564Z,993.92
2018-05-18T03:08:49.430Z,993.88
2018-05-18T03:09:49.205Z,993.95
2018-05-18T03:11:41.982Z,993.93
2018-05-18T03:12:41.852Z,993.91
2018-05-18T03:14:34.734Z,993.91
2018-05-18T03:15:34.525Z,993.89
2018-05-18T03:17:27.376Z,993.92
2018-05-18T03:18:27.243Z,993.90
2018-05-18T03:20:20.102Z,993.92
2018-05-18T03:21:19.903Z,993.93
2018-05-18T03:23:13.175Z,993.94
2018-05-18T03:24:13.080Z,993.96
2018-05-18T03:26:05.826Z,993.97
2018-05-18T03:27:05.710Z,993.99
2018-05-18T03:28:58.452Z,993.99
2018-05-18T03:29:58.356Z,993.97
2018-05-18T03:31:51.125Z,994.04
2018-05-18T03:32:51.000Z,993.99
2018-05-18T03:34:43.834Z,994.04
2018-05-18T03:35:43.641Z,994.04
2018-05-18T03:37:37.382Z,994.06
2018-05-18T03:38:37.220Z,994.04
2018-05-18T03:40:30.054Z,994.06
2018-05-18T03:41:29.966Z,994.02
2018-05-18T03:43:22.795Z,994.07
2018-05-18T03:44:22.617Z,994.08
2018-05-18T03:46:15.360Z,994.11
2018-05-18T03:47:15.257Z,994.10
2018-05-18T03:49:08.034Z,994.15
2018-05-18T03:50:07.907Z,994.10
2018-05-18T03:52:00.680Z,994.08
2018-05-18T03:53:00.555Z,994.10
2018-05-18T03:54:53.305Z,994.08
2018-05-18T03:55:53.241Z,994.09
2018-05-18T03:57:46.572Z,994.14
2018-05-18T03:58:46.386Z,994.10
2018-05-18T04:00:39.109Z,994.13
2018-05-18T04:01:39.007Z,994.11
2018-05-18T04:03:31.781Z,994.11
2018-05-18T04:04:31.658Z,994.11
2018-05-18T04:06:24.401Z,994.18
2018-05-18T04:07:24.307Z,994.11
2018-05-18T04:09:17.155Z,994.13
2018-05-18T04:10:17.068Z,994.14
2018-05-18T04:12:09.827Z,994.10
2018-05-18T04:13:09.696Z,994.14
2018-05-18T04:15:02.560Z,994.16
2018-05-18T04:16:02.448Z,994.16
2018-05-18T04:17:55.290Z,994.19
2018-05-18T04:18:55.188Z,994.27
2018-05-18T04:20:48.052Z,994.22
2018-05-18T04:21:47.954Z,994.24
2018-05-18T04:23:41.202Z,994.17
2018-05-18T04:24:41.110Z,994.26
2018-05-18T04:26:33.966Z,994.22
2018-05-18T04:27:33.869Z,994.25
2018-05-18T04:29:26.616Z,994.26
2018-05-18T04:30:26.589Z,994.25
2018-05-18T04:32:19.753Z,994.21
2018-05-18T04:33:19.671Z,994.26
2018-05-18T04:35:12.927Z,994.25
2018-05-18T04:36:12.819Z,994.26
2018-05-18T04:38:05.564Z,994.27
2018-05-18T04:39:05.516Z,994.20
2018-05-18T04:40:58.854Z,994.26
2018-05-18T04:41:58.214Z,994.31
2018-05-18T04:43:50.975Z,994.34
2018-05-18T04:44:50.865Z,994.35
2018-05-18T04:46:43.624Z,994.39
2018-05-18T04:47:43.517Z,994.40
2018-05-18T04:49:36.370Z,994.38
2018-05-18T04:50:36.270Z,994.38
2018-05-18T04:52:29.128Z,994.41
2018-05-18T04:53:29.009Z,994.42
2018-05-18T04:55:22.312Z,994.40
2018-05-18T04:56:23.268Z,994.53
2018-05-18T04:58:14.964Z,994.47
2018-05-18T04:59:14.817Z,994.50
2018-05-18T05:01:07.673Z,994.54
2018-05-18T05:02:07.561Z,994.56
2018-05-18T05:04:00.311Z,994.50
2018-05-18T05:05:00.244Z,994.49
2018-05-18T05:06:52.975Z,994.48
2018-05-18T05:07:52.870Z,994.49
2018-05-18T05:09:45.607Z,994.55
2018-05-18T05:10:45.506Z,994.55
2018-05-18T05:12:38.389Z,994.58
2018-05-18T05:13:38.429Z,994.56
2018-05-18T05:15:31.019Z,994.53
2018-05-18T05:16:30.910Z,994.52
2018-05-18T05:18:23.762Z,994.58
2018-05-18T05:19:23.552Z,994.57
2018-05-18T05:21:16.405Z,994.61
2018-05-18T05:22:16.295Z,994.59
2018-05-18T05:24:09.162Z,994.66
2018-05-18T05:25:08.963Z,994.60
2018-05-18T05:27:01.689Z,994.61
2018-05-18T05:28:01.607Z,994.62
2018-05-18T05:29:54.364Z,994.56
2018-05-18T05:30:54.236Z,994.66
2018-05-18T05:32:47.021Z,994.64
2018-05-18T05:33:46.912Z,994.62
2018-05-18T05:35:39.649Z,994.69
2018-05-18T05:36:39.608Z,994.69
2018-05-18T05:38:32.291Z,994.72
2018-05-18T05:39:32.205Z,994.71
2018-05-18T05:41:24.951Z,994.74
2018-05-18T05:42:24.828Z,994.70
2018-05-18T05:44:17.706Z,994.68
2018-05-18T05:45:17.578Z,994.74
2018-05-18T05:47:10.365Z,994.71
2018-05-18T05:48:10.226Z,994.67
2018-05-18T05:50:02.994Z,994.69
2018-05-18T05:51:02.879Z,994.69
2018-05-18T05:52:55.677Z,994.76
2018-05-18T05:53:55.543Z,994.72
2018-05-18T05:55:48.281Z,994.80
2018-05-18T05:56:48.169Z,994.78
2018-05-18T05:58:40.955Z,994.83
2018-05-18T05:59:40.821Z,994.74
2018-05-18T06:01:33.596Z,994.85
2018-05-18T06:02:33.503Z,994.87
2018-05-18T06:04:26.209Z,994.89
2018-05-18T06:05:26.190Z,994.83
2018-05-18T06:07:18.882Z,994.83
2018-05-18T06:08:18.764Z,994.79
2018-05-18T06:10:11.602Z,994.87
2018-05-18T06:11:11.537Z,994.85
2018-05-18T06:13:04.267Z,994.90
2018-05-18T06:14:04.161Z,994.91
2018-05-18T06:15:56.930Z,994.91
2018-05-18T06:16:56.817Z,994.87
2018-05-18T06:18:49.672Z,994.96
2018-05-18T06:19:49.544Z,994.93
2018-05-18T06:21:42.296Z,994.94
2018-05-18T06:22:42.201Z,994.96
2018-05-18T06:24:34.956Z,995.00
2018-05-18T06:25:34.846Z,995.02
2018-05-18T06:27:27.588Z,995.00
2018-05-18T06:28:27.495Z,994.96
2018-05-18T06:30:20.357Z,994.99
2018-05-18T06:31:20.141Z,995.01
2018-05-18T06:33:12.884Z,995.00
2018-05-18T06:34:12.839Z,994.98
2018-05-18T06:36:07.088Z,995.10
2018-05-18T06:37:06.988Z,995.02
2018-05-18T06:38:59.723Z,995.09
2018-05-18T06:39:59.624Z,995.12
2018-05-18T06:41:52.394Z,995.02
2018-05-18T06:42:52.304Z,995.06
2018-05-18T06:44:45.106Z,995.11
2018-05-18T06:45:44.919Z,995.04
2018-05-18T06:47:37.677Z,995.07
2018-05-18T06:48:37.585Z,995.11
2018-05-18T06:50:30.324Z,995.11
2018-05-18T06:51:30.209Z,995.09
2018-05-18T06:53:23.495Z,995.10
2018-05-18T06:54:23.393Z,995.09
2018-05-18T06:56:16.209Z,995.09
2018-05-18T06:57:16.109Z,995.12
2018-05-18T06:59:08.900Z,995.14
2018-05-18T07:00:08.763Z,995.11
2018-05-18T07:02:01.519Z,995.12
2018-05-18T07:03:01.413Z,995.13
2018-05-18T07:04:54.196Z,995.09
2018-05-18T07:05:54.077Z,995.12
2018-05-18T07:07:46.803Z,995.13
2018-05-18T07:08:46.703Z,995.16
2018-05-18T07:10:39.581Z,995.15
2018-05-18T07:11:39.376Z,995.12
2018-05-18T07:13:32.238Z,995.12
2018-05-18T07:14:32.100Z,995.14
2018-05-18T07:16:24.960Z,995.12
2018-05-18T07:17:24.745Z,995.11
2018-05-18T07:19:17.491Z,995.12
2018-05-18T07:20:17.390Z,995.21
2018-05-18T07:22:10.178Z,995.27
2018-05-18T07:23:10.035Z,995.20
2018-05-18T07:25:02.901Z,995.22
2018-05-18T07:26:02.689Z,995.21
2018-05-18T07:27:55.462Z,995.19
2018-05-18T07:28:55.338Z,995.21
2018-05-18T07:30:48.074Z,995.25
2018-05-18T07:31:47.981Z,995.19
2018-05-18T07:33:40.847Z,995.25
2018-05-18T07:34:40.727Z,995.23
2018-05-18T07:36:33.505Z,995.26
2018-05-18T07:37:33.382Z,995.26
2018-05-18T07:39:26.150Z,995.22
2018-05-18T07:40:26.035Z,995.25
2018-05-18T07:42:18.920Z,995.22
2018-05-18T07:43:18.701Z,995.23
2018-05-18T07:45:11.503Z,995.26
2018-05-18T07:46:11.328Z,995.28
2018-05-18T07:48:04.068Z,995.24
2018-05-18T07:49:03.987Z,995.30
2018-05-18T07:50:56.851Z,995.27
2018-05-18T07:51:56.721Z,995.29
2018-05-18T07:53:53.645Z,995.26
2018-05-18T07:55:00.625Z,995.28
2018-05-18T07:56:45.204Z,995.26
2018-05-18T07:57:45.094Z,995.31
2018-05-18T07:59:38.027Z,995.29
2018-05-18T08:00:37.841Z,995.30
2018-05-18T08:02:30.618Z,995.30
2018-05-18T08:03:30.476Z,995.25
2018-05-18T08:05:23.337Z,995.31
2018-05-18T08:06:23.123Z,995.29
2018-05-18T08:08:16.021Z,995.37
2018-05-18T08:09:15.771Z,995.31
2018-05-18T08:11:08.537Z,995.29
2018-05-18T08:12:08.452Z,995.30
2018-05-18T08:14:01.205Z,995.30
2018-05-18T08:15:01.088Z,995.34
2018-05-18T08:16:54.935Z,995.39
2018-05-18T08:17:54.841Z,995.37
2018-05-18T08:19:48.127Z,995.32
2018-05-18T08:20:48.000Z,995.36
2018-05-18T08:22:40.766Z,995.37
2018-05-18T08:23:40.677Z,995.41
2018-05-18T08:25:33.555Z,995.30
2018-05-18T08:26:33.397Z,995.41
2018-05-18T08:28:26.148Z,995.37
2018-05-18T08:29:26.045Z,995.41
2018-05-18T08:31:18.909Z,995.42
2018-05-18T08:32:18.828Z,995.42
2018-05-18T08:34:11.549Z,995.47
2018-05-18T08:35:11.444Z,995.47
2018-05-18T08:37:04.800Z,995.44
2018-05-18T08:38:04.090Z,995.51
2018-05-18T08:39:56.957Z,995.49
2018-05-18T08:40:56.846Z,995.47
2018-05-18T08:42:49.858Z,995.47
2018-05-18T08:43:49.593Z,995.52
2018-05-18T08:45:43.445Z,995.43
2018-05-18T08:46:42.273Z,995.48
2018-05-18T08:48:34.989Z,995.44
2018-05-18T08:49:34.909Z,995.51
2018-05-18T08:51:27.636Z,995.45
2018-05-18T08:52:27.525Z,995.49
2018-05-18T08:54:20.277Z,995.54
2018-05-18T08:55:20.202Z,995.57
2018-05-18T08:57:12.970Z,995.62
2018-05-18T08:58:12.822Z,995.62
2018-05-18T09:00:05.674Z,995.65
2018-05-18T09:01:05.492Z,995.65
2018-05-18T09:02:58.352Z,995.63
2018-05-18T09:03:58.116Z,995.64
2018-05-18T09:05:50.889Z,995.62
2018-05-18T09:06:50.792Z,995.67
2018-05-18T09:08:43.643Z,995.63
2018-05-18T09:09:43.511Z,995.60
2018-05-18T09:11:36.270Z,995.65
2018-05-18T09:12:36.168Z,995.64
2018-05-18T09:14:28.936Z,995.67
2018-05-18T09:15:28.819Z,995.66
2018-05-18T09:17:21.676Z,995.72
2018-05-18T09:18:21.459Z,995.69
2018-05-18T09:20:14.219Z,995.72
2018-05-18T09:21:14.105Z,995.72
2018-05-18T09:23:07.385Z,995.72
2018-05-18T09:24:07.292Z,995.71
2018-05-18T09:26:00.542Z,995.69
2018-05-18T09:27:00.457Z,995.74
2018-05-18T09:28:53.312Z,995.69
2018-05-18T09:29:53.184Z,995.81
2018-05-18T09:31:46.024Z,995.74
2018-05-18T09:32:45.820Z,995.72
2018-05-18T09:34:38.791Z,995.77
2018-05-18T09:35:38.718Z,995.76
2018-05-18T09:37:31.327Z,995.76
2018-05-18T09:38:31.212Z,995.74
2018-05-18T09:40:23.972Z,995.73
2018-05-18T09:41:23.880Z,995.80
2018-05-18T09:43:16.747Z,995.80
2018-05-18T09:44:16.623Z,995.84
2018-05-18T09:46:09.409Z,995.77
2018-05-18T09:47:09.264Z,995.78
2018-05-18T09:49:02.875Z,995.76
2018-05-18T09:50:02.611Z,995.81
2018-05-18T09:51:56.822Z,995.86
2018-05-18T09:52:56.721Z,995.92
2018-05-18T09:54:49.728Z,995.82
2018-05-18T09:55:49.496Z,995.83
2018-05-18T09:57:42.201Z,995.82
2018-05-18T09:58:42.105Z,995.84
2018-05-18T10:00:34.981Z,995.88
2018-05-18T10:01:35.021Z,995.90
2018-05-18T10:03:27.599Z,995.85
2018-05-18T10:04:27.513Z,995.78
2018-05-18T10:06:20.467Z,995.82
2018-05-18T10:07:20.345Z,995.88
2018-05-18T10:09:13.113Z,995.81
2018-05-18T10:10:13.012Z,995.87
2018-05-18T10:12:05.867Z,995.86
2018-05-18T10:13:05.770Z,995.89
2018-05-18T10:14:58.595Z,995.89
2018-05-18T10:15:58.407Z,995.92
2018-05-18T10:17:51.148Z,995.91
2018-05-18T10:18:51.039Z,995.91
2018-05-18T10:20:43.819Z,995.98
2018-05-18T10:21:43.711Z,995.94
2018-05-18T10:23:36.509Z,995.97
2018-05-18T10:24:36.339Z,995.96
2018-05-18T10:26:29.103Z,995.98
2018-05-18T10:27:28.987Z,995.97
2018-05-18T10:29:21.828Z,995.98
2018-05-18T10:30:21.746Z,995.99
2018-05-18T10:32:14.495Z,996.03
2018-05-18T10:33:14.393Z,995.96
2018-05-18T10:35:07.853Z,996.03
2018-05-18T10:36:07.710Z,996.00
2018-05-18T10:38:00.499Z,996.01
2018-05-18T10:39:00.409Z,995.97
2018-05-18T10:40:53.253Z,996.00
2018-05-18T10:41:53.157Z,996.02
2018-05-18T10:43:46.120Z,996.01
2018-05-18T10:44:46.122Z,995.97
2018-05-18T10:46:39.357Z,995.98
2018-05-18T10:47:39.291Z,996.00
2018-05-18T10:49:32.273Z,995.97
2018-05-18T10:50:32.112Z,995.95
2018-05-18T10:52:24.960Z,996.00
2018-05-18T10:53:24.760Z,996.01
2018-05-18T10:55:17.630Z,995.97
2018-05-18T10:56:17.512Z,995.99
2018-05-18T10:58:10.356Z,995.97
2018-05-18T10:59:10.249Z,996.00
2018-05-18T11:01:03.305Z,996.00
2018-05-18T11:02:03.034Z,996.05
2018-05-18T11:03:55.786Z,995.97
2018-05-18T11:04:55.653Z,995.94
2018-05-18T11:06:48.528Z,995.96
2018-05-18T11:07:48.407Z,996.00
2018-05-18T11:09:41.279Z,995.92
2018-05-18T11:10:41.053Z,995.92
2018-05-18T11:12:33.792Z,995.92
2018-05-18T11:13:33.694Z,995.90
2018-05-18T11:15:26.454Z,995.89
2018-05-18T11:16:26.354Z,995.89
2018-05-18T11:18:19.185Z,995.91
2018-05-18T11:19:18.999Z,995.89
2018-05-18T11:21:12.257Z,995.87
2018-05-18T11:22:12.165Z,995.87
2018-05-18T11:24:05.101Z,995.91
2018-05-18T11:25:05.002Z,995.92
2018-05-18T11:26:57.796Z,995.91
2018-05-18T11:27:57.655Z,995.91
2018-05-18T11:29:50.414Z,995.99
2018-05-18T11:30:50.294Z,995.95
2018-05-18T11:32:43.051Z,995.93
2018-05-18T11:33:42.949Z,995.92
2018-05-18T11:35:35.841Z,995.92
2018-05-18T11:36:35.920Z,995.95
2018-05-18T11:38:28.483Z,995.91
2018-05-18T11:39:28.344Z,995.88
2018-05-18T11:41:21.076Z,995.89
2018-05-18T11:42:21.003Z,995.89
2018-05-18T11:44:13.749Z,995.87
2018-05-18T11:45:13.690Z,995.87
2018-05-18T11:47:06.418Z,995.90
2018-05-18T11:48:06.372Z,995.89
2018-05-18T11:49:59.143Z,995.87
2018-05-18T11:50:58.990Z,995.90
2018-05-18T11:52:51.816Z,995.81
2018-05-18T11:53:51.680Z,995.84
2018-05-18T11:55:44.541Z,995.87
2018-05-18T11:56:44.423Z,995.85
2018-05-18T11:58:37.189Z,995.84
2018-05-18T11:59:37.068Z,995.87
2018-05-18T12:01:29.834Z,995.86
2018-05-18T12:02:29.785Z,995.89
2018-05-18T12:04:23.094Z,995.88
2018-05-18T12:05:22.980Z,995.88
2018-05-18T12:07:15.724Z,995.82
2018-05-18T12:08:15.672Z,995.87
2018-05-18T12:10:08.401Z,995.88
2018-05-18T12:11:08.278Z,995.85
2018-05-18T12:13:01.022Z,995.82
2018-05-18T12:14:00.983Z,995.87
2018-05-18T12:15:53.811Z,995.87
2018-05-18T12:16:53.692Z,995.87
2018-05-18T12:18:46.530Z,995.89
2018-05-18T12:19:46.425Z,995.91
2018-05-18T12:21:39.289Z,995.94
2018-05-18T12:22:39.180Z,995.97
2018-05-18T12:24:32.038Z,996.01
2018-05-18T12:25:31.923Z,995.95
2018-05-18T12:27:24.804Z,995.96
2018-05-18T12:28:24.687Z,995.93
2018-05-18T12:30:18.605Z,995.98
2018-05-18T12:31:17.539Z,995.99
2018-05-18T12:33:10.392Z,995.91
2018-05-18T12:34:10.284Z,995.91
2018-05-18T12:36:03.232Z,995.97
2018-05-18T12:37:03.129Z,995.88
2018-05-18T12:38:56.017Z,995.95
2018-05-18T12:39:55.911Z,995.88
2018-05-18T12:41:48.730Z,995.91
2018-05-18T12:42:48.992Z,995.81
2018-05-18T12:44:41.560Z,995.89
2018-05-18T12:45:41.380Z,995.83
2018-05-18T12:47:34.243Z,995.89
2018-05-18T12:48:34.133Z,995.88
2018-05-18T12:50:26.983Z,995.92
2018-05-18T12:51:26.873Z,995.92
2018-05-18T12:53:19.760Z,995.89
2018-05-18T12:54:19.656Z,995.88
2018-05-18T12:56:23.557Z,995.87
2018-05-18T12:57:24.409Z,995.90
2018-05-18T12:59:16.289Z,995.85
2018-05-18T13:00:16.186Z,995.86
2018-05-18T13:02:09.173Z,995.81
2018-05-18T13:03:08.927Z,995.76
2018-05-18T13:05:01.802Z,995.83
2018-05-18T13:06:01.690Z,995.84
2018-05-18T13:07:54.571Z,995.86
2018-05-18T13:08:55.396Z,995.80
2018-05-18T13:10:47.275Z,995.85
2018-05-18T13:11:47.175Z,995.92
2018-05-18T13:13:40.140Z,995.87
2018-05-18T13:14:40.044Z,995.88
2018-05-18T13:16:32.584Z,995.85
2018-05-18T13:17:32.479Z,995.84
2018-05-18T13:19:25.349Z,995.83
2018-05-18T13:20:26.125Z,995.84
2018-05-18T13:22:18.055Z,995.82
2018-05-18T13:23:17.888Z,995.85
2018-05-18T13:25:11.192Z,995.82
2018-05-18T13:26:10.620Z,995.82
2018-05-18T13:28:03.389Z,995.85
2018-05-18T13:29:03.265Z,995.85
2018-05-18T13:30:56.172Z,995.80
2018-05-18T13:31:56.013Z,995.84
2018-05-18T13:33:48.869Z,995.81
2018-05-18T13:34:48.764Z,995.79
2018-05-18T13:36:41.534Z,995.83
2018-05-18T13:37:41.415Z,995.84
2018-05-18T13:39:34.316Z,995.86
2018-05-18T13:40:34.156Z,995.87
2018-05-18T13:42:27.509Z,995.89
2018-05-18T13:43:27.330Z,995.89
2018-05-18T13:45:20.115Z,995.91
2018-05-18T13:46:19.971Z,995.91
2018-05-18T13:48:12.887Z,995.89
2018-05-18T13:49:12.728Z,995.92
2018-05-18T13:51:05.567Z,995.92
2018-05-18T13:52:05.560Z,995.91
2018-05-18T13:53:58.229Z,995.90
2018-05-18T13:54:58.149Z,995.88
2018-05-18T13:56:51.036Z,995.85
2018-05-18T13:57:50.809Z,995.92
2018-05-18T13:59:43.703Z,995.86
2018-05-18T14:00:43.423Z,995.87
2018-05-18T14:02:36.154Z,995.85
2018-05-18T14:03:36.056Z,995.84
2018-05-18T14:05:28.832Z,995.89
2018-05-18T14:06:28.719Z,995.85
2018-05-18T14:08:21.625Z,995.87
2018-05-18T14:09:21.520Z,995.87
2018-05-18T14:11:14.324Z,995.81
2018-05-18T14:12:14.387Z,995.85
2018-05-18T14:14:06.980Z,995.91
2018-05-18T14:15:06.853Z,995.89
2018-05-18T14:16:59.717Z,995.88
2018-05-18T14:17:59.597Z,995.89
2018-05-18T14:19:52.440Z,995.85
2018-05-18T14:20:52.284Z,995.87
2018-05-18T14:22:45.238Z,995.82
2018-05-18T14:23:45.003Z,995.85
2018-05-18T14:25:37.840Z,995.87
2018-05-18T14:26:37.754Z,995.85
2018-05-18T14:28:31.121Z,995.82
2018-05-18T14:29:30.912Z,995.82
2018-05-18T14:31:23.672Z,995.81
2018-05-18T14:32:23.562Z,995.82
2018-05-18T14:34:16.340Z,995.85
2018-05-18T14:35:16.202Z,995.79
2018-05-18T14:37:08.958Z,995.70
2018-05-18T14:38:08.877Z,995.77
2018-05-18T14:40:01.707Z,995.76
2018-05-18T14:41:01.618Z,995.70
2018-05-18T14:42:54.389Z,995.72
2018-05-18T14:43:54.295Z,995.76
2018-05-18T14:45:47.003Z,995.79
2018-05-18T14:46:46.887Z,995.78
2018-05-18T14:48:39.758Z,995.77
2018-05-18T14:49:39.643Z,995.76
2018-05-18T14:51:32.461Z,995.84
2018-05-18T14:52:32.321Z,995.77
2018-05-18T14:54:26.400Z,995.81
2018-05-18T14:55:26.281Z,995.85
2018-05-18T14:57:19.122Z,995.84
2018-05-18T14:58:19.901Z,995.81
2018-05-18T15:00:12.291Z,995.84
2018-05-18T15:01:12.266Z,995.78
2018-05-18T15:03:05.554Z,995.85
2018-05-18T15:04:05.460Z,995.85
2018-05-18T15:05:59.876Z,995.81
2018-05-18T15:06:59.750Z,995.80
2018-05-18T15:08:52.601Z,995.79
2018-05-18T15:09:52.465Z,995.81
2018-05-18T15:11:46.326Z,995.80
2018-05-18T15:12:46.098Z,995.77
2018-05-18T15:14:38.514Z,995.77
2018-05-18T15:15:38.407Z,995.79
2018-05-18T15:17:31.261Z,995.73
2018-05-18T15:18:31.147Z,995.76
2018-05-18T15:20:24.518Z,995.79
2018-05-18T15:21:24.476Z,995.80
2018-05-18T15:23:18.817Z,995.83
2018-05-18T15:24:17.854Z,995.79
2018-05-18T15:26:12.960Z,995.79
2018-05-18T15:27:12.858Z,995.80
2018-05-18T15:29:05.740Z,995.75
2018-05-18T15:30:05.622Z,995.82
2018-05-18T15:31:58.728Z,995.84
2018-05-18T15:32:58.561Z,995.78
2018-05-18T15:34:51.447Z,995.75
2018-05-18T15:35:51.233Z,995.76
2018-05-18T15:37:45.707Z,995.76
2018-05-18T15:38:45.771Z,995.73
2018-05-18T15:40:37.226Z,995.79
2018-05-18T15:41:37.031Z,995.76
2018-05-18T15:43:29.995Z,995.72
2018-05-18T15:44:29.844Z,995.70
2018-05-18T15:46:22.624Z,995.73
2018-05-18T15:47:22.517Z,995.63
2018-05-18T15:49:18.003Z,995.68
2018-05-18T15:50:16.564Z,995.71
2018-05-18T15:52:08.528Z,995.69
2018-05-18T15:53:08.350Z,995.64
2018-05-18T15:55:01.074Z,995.63
2018-05-18T15:56:00.964Z,995.59
2018-05-18T15:57:53.730Z,995.62
2018-05-18T15:58:53.615Z,995.61
2018-05-18T16:00:47.980Z,995.61
2018-05-18T16:01:47.870Z,995.60
2018-05-18T16:03:39.167Z,995.63
2018-05-18T16:04:38.917Z,995.60
2018-05-18T16:06:31.834Z,995.61
2018-05-18T16:07:31.670Z,995.63
2018-05-18T16:09:24.607Z,995.64
2018-05-18T16:10:24.545Z,995.59
2018-05-18T16:12:19.891Z,995.58
2018-05-18T16:13:18.867Z,995.56
2018-05-18T16:15:12.068Z,995.57
2018-05-18T16:16:11.962Z,995.57
2018-05-18T16:18:05.253Z,995.55
2018-05-18T16:19:05.153Z,995.56
2018-05-18T16:20:59.023Z,995.54
2018-05-18T16:21:58.946Z,995.55
2018-05-18T16:23:51.747Z,995.61
2018-05-18T16:24:51.647Z,995.59
2018-05-18T16:26:45.013Z,995.56
2018-05-18T16:27:44.815Z,995.56
2018-05-18T16:29:37.671Z,995.55
2018-05-18T16:30:37.563Z,995.56
2018-05-18T16:32:30.409Z,995.57
2018-05-18T16:33:30.334Z,995.57
2018-05-18T16:35:23.067Z,995.55
2018-05-18T16:36:23.134Z,995.55
2018-05-18T16:38:15.717Z,995.58
2018-05-18T16:39:15.602Z,995.54
2018-05-18T16:41:08.380Z,995.60
2018-05-18T16:42:08.267Z,995.53
2018-05-18T16:44:02.023Z,995.48
2018-05-18T16:45:01.918Z,995.51
2018-05-18T16:46:54.774Z,995.55
2018-05-18T16:47:54.672Z,995.53
2018-05-18T16:49:48.182Z,995.53
2018-05-18T16:50:47.848Z,995.55
2018-05-18T16:52:40.164Z,995.52
2018-05-18T16:53:40.055Z,995.53
2018-05-18T16:55:32.811Z,995.56
2018-05-18T16:56:32.794Z,995.53
2018-05-18T16:58:25.572Z,995.53
2018-05-18T16:59:25.461Z,995.52
2018-05-18T17:01:18.225Z,995.52
2018-05-18T17:02:18.107Z,995.54
2018-05-18T17:04:10.972Z,995.54
2018-05-18T17:05:10.849Z,995.49
2018-05-18T17:07:03.632Z,995.55
2018-05-18T17:08:03.498Z,995.56
2018-05-18T17:09:56.246Z,995.61
2018-05-18T17:10:56.176Z,995.57
2018-05-18T17:12:49.035Z,995.58
2018-05-18T17:13:48.893Z,995.58
2018-05-18T17:15:41.748Z,995.51
2018-05-18T17:16:41.650Z,995.55
2018-05-18T17:18:34.412Z,995.57
2018-05-18T17:19:34.306Z,995.56
2018-05-18T17:21:27.136Z,995.63
2018-05-18T17:22:27.054Z,995.59
2018-05-18T17:24:19.915Z,995.59
2018-05-18T17:25:19.794Z,995.59
2018-05-18T17:27:12.537Z,995.56
2018-05-18T17:28:12.469Z,995.63
2018-05-18T17:30:05.199Z,995.57
2018-05-18T17:31:05.091Z,995.60
2018-05-18T17:32:57.853Z,995.59
2018-05-18T17:33:57.746Z,995.60
2018-05-18T17:35:50.576Z,995.61
2018-05-18T17:36:50.482Z,995.59
2018-05-18T17:38:43.260Z,995.60
2018-05-18T17:39:43.151Z,995.60
2018-05-18T17:41:35.988Z,995.58
2018-05-18T17:42:36.056Z,995.62
2018-05-18T17:44:28.643Z,995.54
2018-05-18T17:45:28.532Z,995.61
2018-05-18T17:47:21.372Z,995.61
2018-05-18T17:48:21.288Z,995.59
2018-05-18T17:50:14.043Z,995.63
2018-05-18T17:51:13.996Z,995.63
2018-05-18T17:53:07.278Z,995.61
2018-05-18T17:54:07.110Z,995.62
2018-05-18T17:55:59.862Z,995.64
2018-05-18T17:56:59.758Z,995.63
2018-05-18T17:58:52.473Z,995.63